Time;durP1;ratioP1;P1;durP2;ratioP2;P2;SDS_P1;SDS_P2;PMS_P1;PMS_P2;Temp;Humidity;BMP_temperature;BMP_pressure;BME280_temperature;BME280_humidity;BME280_pressure;Samples;Min_cycle;Max_cycle;Signal;HPM_P1;HPM_P2
2024/02/20 00:01:09;;;;;;;;;;;;;;;1.16;100.00;100591.34;5136882;27;878;-59
2024/02/20 00:03:36;;;;;;;;;;;;;;;1.24;100.00;100592.47;5136895;27;1284;-59
2024/02/20 00:06:03;;;;;;;;;;;;;;;1.22;100.00;100587.34;5136921;27;839;-59
2024/02/20 00:08:30;;;;;;;;;;;;;;;1.26;100.00;100595.69;5136623;27;1889;-59
2024/02/20 00:10:56;;;;;;;;;;;;;;;1.35;100.00;100588.31;5118084;27;1436;-59
2024/02/20 00:13:23;;;;;;;;;;;;;;;1.40;100.00;100587.34;5136577;27;845;-59
2024/02/20 00:15:50;;;;;;;;;;;;;;;1.41;100.00;100581.56;5136432;27;886;-59
2024/02/20 00:18:17;;;;;;;;;;;;;;;1.43;100.00;100584.78;5136364;27;834;-59
2024/02/20 00:20:44;;;;;;;;;;;;;;;1.43;100.00;100583.97;5136919;27;852;-59
2024/02/20 00:23:14;;;;;;;;;;;;;;;1.49;100.00;100576.44;5136644;27;1493;-59
2024/02/20 00:25:42;;;;;;;;;;;;;;;1.45;100.00;100575.47;5136217;27;885;-59
2024/02/20 00:28:09;;;;;;;;;;;;;;;1.43;100.00;100571.16;5136202;27;1889;-59
2024/02/20 00:30:36;;;;;;;;;;;;;;;1.46;100.00;100577.88;5136239;27;891;-59
2024/02/20 00:33:02;;;;;;;;;;;;;;;1.54;100.00;100573.56;5136037;27;902;-59
2024/02/20 00:35:30;;;;;;;;;;;;;;;1.55;100.00;100567.75;5117559;27;1521;-59
2024/02/20 00:37:57;;;;;;;;;;;;;;;1.62;100.00;100564.53;5135925;27;926;-60
2024/02/20 00:40:23;;;;;;;;;;;;;;;1.72;100.00;100560.69;5135992;27;836;-59
2024/02/20 00:42:50;;;;;;;;;;;;;;;1.85;100.00;100559.69;5135976;27;889;-60
2024/02/20 00:45:17;;;;;;;;;;;;;;;1.86;100.00;100555.03;5136033;27;920;-59
2024/02/20 00:47:45;;;;;;;;;;;;;;;1.83;100.00;100551.84;5135631;27;1305;-59
2024/02/20 00:50:12;;;;;;;;;;;;;;;1.75;100.00;100544.50;5117425;27;1886;-59
2024/02/20 00:52:39;;;;;;;;;;;;;;;1.65;100.00;100542.09;5135649;27;954;-59
2024/02/20 00:55:06;;;;;;;;;;;;;;;1.60;100.00;100540.34;5135632;27;855;-59
2024/02/20 00:57:33;;;;;;;;;;;;;;;1.60;100.00;100537.63;5116540;27;1192;-59
2024/02/20 00:59:59;;;;;;;;;;;;;;;1.58;100.00;100533.59;5135586;27;823;-59
2024/02/20 01:02:29;;;;;;;;;;;;;;;1.50;100.00;100534.44;5135432;27;944;-59
2024/02/20 01:04:56;;;;;;;;;;;;;;;1.42;100.00;100530.59;5135451;27;843;-59
2024/02/20 01:07:24;;;;;;;;;;;;;;;1.35;100.00;100528.38;5135338;27;839;-59
2024/02/20 01:09:51;;;;;;;;;;;;;;;1.28;100.00;100522.63;5135225;27;1885;-59
2024/02/20 01:12:18;;;;;;;;;;;;;;;1.24;100.00;100521.66;5135267;27;831;-59
2024/02/20 01:14:45;;;;;;;;;;;;;;;1.28;100.00;100519.91;5135264;27;855;-59
2024/02/20 01:17:12;;;;;;;;;;;;;;;1.33;100.00;100519.72;5135146;27;929;-59
2024/02/20 01:19:38;;;;;;;;;;;;;;;1.38;100.00;100518.75;5135137;27;839;-59
2024/02/20 01:22:06;;;;;;;;;;;;;;;1.40;100.00;100521.97;5135176;27;819;-60
2024/02/20 01:24:32;;;;;;;;;;;;;;;1.49;100.00;100517.28;5134906;27;854;-59
2024/02/20 01:26:59;;;;;;;;;;;;;;;1.62;100.00;100515.50;5135006;27;882;-59
2024/02/20 01:29:26;;;;;;;;;;;;;;;1.78;100.00;100511.13;5134822;27;1890;-59
2024/02/20 01:31:53;;;;;;;;;;;;;;;1.91;100.00;100509.31;5135224;27;886;-59
2024/02/20 01:34:21;;;;;;;;;;;;;;;2.03;100.00;100514.09;5134816;27;829;-59
2024/02/20 01:36:47;;;;;;;;;;;;;;;2.16;100.00;100515.00;5134814;27;812;-59
2024/02/20 01:39:14;;;;;;;;;;;;;;;2.25;100.00;100508.34;5134719;27;835;-59
2024/02/20 01:41:43;;;;;;;;;;;;;;;2.36;100.00;100505.25;5134741;27;1032;-59
2024/02/20 01:44:10;;;;;;;;;;;;;;;2.45;100.00;100508.72;5134653;27;827;-59
2024/02/20 01:46:37;;;;;;;;;;;;;;;2.52;100.00;100509.03;5135082;27;1016;-59
2024/02/20 01:49:04;;;;;;;;;;;;;;;2.61;100.00;100503.50;5134249;27;1901;-59
2024/02/20 01:51:32;;;;;;;;;;;;;;;2.65;100.00;100502.50;5134585;27;815;-59
2024/02/20 01:53:59;;;;;;;;;;;;;;;2.78;100.00;100503.38;5134369;27;917;-59
2024/02/20 01:56:26;;;;;;;;;;;;;;;2.84;100.00;100506.72;5134501;27;890;-59
2024/02/20 01:58:53;;;;;;;;;;;;;;;2.95;100.00;100509.84;5134346;27;843;-59
2024/02/20 02:01:22;;;;;;;;;;;;;;;3.00;100.00;100496.75;5134330;27;1162;-59
2024/02/20 02:03:49;;;;;;;;;;;;;;;3.04;100.00;100499.63;5134239;27;816;-59
2024/02/20 02:06:16;;;;;;;;;;;;;;;3.06;100.00;100500.09;5134164;27;823;-59
2024/02/20 02:08:42;;;;;;;;;;;;;;;3.09;100.00;100490.44;5133181;27;1898;-59
2024/02/20 02:11:09;;;;;;;;;;;;;;;3.12;100.00;100498.75;5133994;27;968;-59
2024/02/20 02:13:36;;;;;;;;;;;;;;;3.16;100.00;100504.34;5134127;27;819;-59
2024/02/20 02:16:02;;;;;;;;;;;;;;;3.18;100.00;100504.81;5133937;27;876;-59
2024/02/20 02:18:29;;;;;;;;;;;;;;;3.21;100.00;100506.88;5134054;27;847;-59
2024/02/20 02:20:55;;;;;;;;;;;;;;;3.24;100.00;100501.56;5133896;27;831;-59
2024/02/20 02:23:22;;;;;;;;;;;;;;;3.28;100.00;100493.47;5133860;27;879;-59
2024/02/20 02:25:50;;;;;;;;;;;;;;;3.32;100.00;100496.34;5133704;27;926;-59
2024/02/20 02:28:16;;;;;;;;;;;;;;;3.34;100.00;100505.00;5133739;27;1882;-59
2024/02/20 02:30:43;;;;;;;;;;;;;;;3.35;100.00;100504.66;5133696;27;827;-59
2024/02/20 02:33:10;;;;;;;;;;;;;;;3.37;100.00;100507.84;5133681;27;839;-59
2024/02/20 02:35:37;;;;;;;;;;;;;;;3.43;100.00;100502.97;5133977;27;890;-59
2024/02/20 02:38:05;;;;;;;;;;;;;;;3.46;100.00;100505.84;5133614;27;930;-59
2024/02/20 02:40:32;;;;;;;;;;;;;;;3.48;100.00;100498.09;5133570;27;898;-59
2024/02/20 02:42:58;;;;;;;;;;;;;;;3.49;100.00;100493.41;5133316;27;969;-59
2024/02/20 02:45:31;;;;;;;;;;;;;;;3.51;100.00;100499.34;5133694;27;991;-59
2024/02/20 02:47:59;;;;;;;;;;;;;;;3.55;100.00;100507.69;5133149;27;1906;-59
2024/02/20 02:50:26;;;;;;;;;;;;;;;3.59;100.00;100505.88;5133299;27;823;-59
2024/02/20 02:52:52;;;;;;;;;;;;;;;3.60;100.00;100513.72;5133394;27;866;-59
2024/02/20 02:55:22;;;;;;;;;;;;;;;3.61;100.00;100509.84;5133224;27;886;-59
2024/02/20 02:57:49;;;;;;;;;;;;;;;3.64;100.00;100508.38;5133196;27;923;-59
2024/02/20 03:00:17;;;;;;;;;;;;;;;3.67;100.00;100518.66;5133472;27;819;-59
2024/02/20 03:02:43;;;;;;;;;;;;;;;3.68;100.00;100518.28;5133156;27;910;-59
2024/02/20 03:05:09;;;;;;;;;;;;;;;3.71;100.00;100514.06;5133155;27;843;-59
2024/02/20 03:07:36;;;;;;;;;;;;;;;3.72;100.00;100521.16;5133016;27;1024;-59
2024/02/20 03:10:02;;;;;;;;;;;;;;;3.71;100.00;100519.53;5133112;27;1957;-59
2024/02/20 03:12:29;;;;;;;;;;;;;;;3.71;100.00;100521.50;5132990;27;847;-59
2024/02/20 03:14:56;;;;;;;;;;;;;;;3.69;100.00;100513.63;5133058;27;831;-59
2024/02/20 03:17:23;;;;;;;;;;;;;;;3.71;100.00;100513.28;5132867;27;979;-59
2024/02/20 03:19:50;;;;;;;;;;;;;;;3.75;100.00;100519.69;5132728;27;890;-59
2024/02/20 03:22:18;;;;;;;;;;;;;;;3.80;100.00;100527.69;5114337;27;1360;-59
2024/02/20 03:24:45;;;;;;;;;;;;;;;3.83;100.00;100522.31;5132848;27;835;-59
2024/02/20 03:27:12;;;;;;;;;;;;;;;3.89;100.00;100529.16;5132772;27;942;-59
2024/02/20 03:29:38;;;;;;;;;;;;;;;3.93;100.00;100533.97;5132777;27;1893;-59
2024/02/20 03:32:05;;;;;;;;;;;;;;;3.97;100.00;100537.59;5132721;27;842;-59
2024/02/20 03:34:31;;;;;;;;;;;;;;;3.99;100.00;100529.84;5132669;27;859;-59
2024/02/20 03:36:58;;;;;;;;;;;;;;;4.00;100.00;100531.47;5132714;28;870;-59
2024/02/20 03:39:25;;;;;;;;;;;;;;;4.01;100.00;100533.88;5132728;28;882;-59
2024/02/20 03:41:51;;;;;;;;;;;;;;;4.03;100.00;100528.84;5132666;28;882;-59
2024/02/20 03:44:18;;;;;;;;;;;;;;;4.03;100.00;100531.59;5132610;28;878;-59
2024/02/20 03:46:45;;;;;;;;;;;;;;;4.03;100.00;100528.84;5133224;28;924;-59
2024/02/20 03:49:12;;;;;;;;;;;;;;;4.04;100.00;100530.44;5132277;28;1914;-59
2024/02/20 03:51:38;;;;;;;;;;;;;;;4.06;100.00;100525.44;5132934;28;816;-59
2024/02/20 03:54:05;;;;;;;;;;;;;;;4.09;100.00;100529.41;5132625;28;925;-59
2024/02/20 03:56:32;;;;;;;;;;;;;;;4.11;100.00;100526.34;5132551;28;831;-59
2024/02/20 03:58:59;;;;;;;;;;;;;;;4.13;100.00;100521.34;5132458;28;839;-59
2024/02/20 04:01:26;;;;;;;;;;;;;;;4.13;100.00;100519.38;5132468;28;867;-59
2024/02/20 04:03:53;;;;;;;;;;;;;;;4.15;100.00;100524.53;5132441;28;898;-59
2024/02/20 04:06:19;;;;;;;;;;;;;;;4.14;100.00;100523.72;5132437;28;898;-59
2024/02/20 04:08:46;;;;;;;;;;;;;;;4.15;100.00;100522.59;5132357;28;1889;-59
2024/02/20 04:11:13;;;;;;;;;;;;;;;4.13;100.00;100524.84;5114073;28;2493;-59
2024/02/20 04:13:39;;;;;;;;;;;;;;;4.12;100.00;100522.47;5132298;28;866;-59
2024/02/20 04:16:06;;;;;;;;;;;;;;;4.11;100.00;100521.66;5132382;28;848;-59
2024/02/20 04:18:33;;;;;;;;;;;;;;;4.08;100.00;100528.63;5113925;28;1366;-59
2024/02/20 04:20:59;;;;;;;;;;;;;;;4.06;100.00;100522.69;5132325;28;890;-59
2024/02/20 04:23:26;;;;;;;;;;;;;;;4.04;100.00;100529.66;5132361;28;906;-59
2024/02/20 04:25:53;;;;;;;;;;;;;;;3.99;100.00;100524.38;5132183;28;873;-59
2024/02/20 04:28:19;;;;;;;;;;;;;;;3.94;100.00;100522.66;5132279;28;1956;-59
2024/02/20 04:30:46;;;;;;;;;;;;;;;3.91;100.00;100525.31;5132097;27;893;-59
2024/02/20 04:33:13;;;;;;;;;;;;;;;3.89;100.00;100522.91;5135321;27;901;-59
2024/02/20 04:35:39;;;;;;;;;;;;;;;3.91;100.00;100531.56;5135997;27;839;-59
2024/02/20 04:38:06;;;;;;;;;;;;;;;3.90;100.00;100521.75;5136042;27;906;-59
2024/02/20 04:40:32;;;;;;;;;;;;;;;3.89;100.00;100518.22;5135873;27;878;-59
2024/02/20 04:42:59;;;;;;;;;;;;;;;3.87;100.00;100519.72;5135861;27;977;-59
2024/02/20 04:45:26;;;;;;;;;;;;;;;3.84;100.00;100523.09;5136021;27;924;-59
2024/02/20 04:47:53;;;;;;;;;;;;;;;3.83;100.00;100525.03;5135606;27;1216;-59
2024/02/20 04:50:20;;;;;;;;;;;;;;;3.84;100.00;100521.19;5135634;27;1910;-59
2024/02/20 04:52:47;;;;;;;;;;;;;;;3.84;100.00;100521.19;5135577;27;866;-59
2024/02/20 04:55:13;;;;;;;;;;;;;;;3.83;100.00;100521.53;5135690;27;831;-59
2024/02/20 04:57:40;;;;;;;;;;;;;;;3.80;100.00;100523.00;5135807;27;850;-59
2024/02/20 05:00:10;;;;;;;;;;;;;;;3.81;100.00;100524.59;5135585;27;808;-59
2024/02/20 05:02:42;;;;;;;;;;;;;;;3.83;100.00;100529.72;5135341;27;907;-59
2024/02/20 05:05:08;;;;;;;;;;;;;;;3.87;100.00;100528.69;5135461;27;922;-59
2024/02/20 05:07:34;;;;;;;;;;;;;;;3.90;100.00;100527.22;5135471;27;872;-59
2024/02/20 05:10:01;;;;;;;;;;;;;;;3.92;100.00;100527.69;5135319;27;1889;-59
2024/02/20 05:12:27;;;;;;;;;;;;;;;3.95;100.00;100531.66;5135300;27;878;-59
2024/02/20 05:14:54;;;;;;;;;;;;;;;3.98;100.00;100539.22;5135192;27;874;-59
2024/02/20 05:17:21;;;;;;;;;;;;;;;4.02;100.00;100531.94;5135304;27;902;-59
2024/02/20 05:19:48;;;;;;;;;;;;;;;4.04;100.00;100538.66;5135120;27;827;-60
2024/02/20 05:22:16;;;;;;;;;;;;;;;4.07;100.00;100542.63;5135138;27;867;-59
2024/02/20 05:24:44;;;;;;;;;;;;;;;4.09;100.00;100543.88;5135023;27;835;-59
2024/02/20 05:27:10;;;;;;;;;;;;;;;4.14;100.00;100542.88;5135061;27;815;-59
2024/02/20 05:29:36;;;;;;;;;;;;;;;4.22;100.00;100543.91;5134807;27;1897;-59
2024/02/20 05:32:03;;;;;;;;;;;;;;;4.29;100.00;100550.41;5135017;27;820;-59
2024/02/20 05:34:30;;;;;;;;;;;;;;;4.33;100.00;100545.03;5135026;27;870;-59
2024/02/20 05:36:56;;;;;;;;;;;;;;;4.38;100.00;100549.50;5134912;27;827;-59
2024/02/20 05:39:25;;;;;;;;;;;;;;;4.44;100.00;100548.13;5134771;27;882;-59
2024/02/20 05:41:51;;;;;;;;;;;;;;;4.49;100.00;100547.91;5134707;27;937;-59
2024/02/20 05:44:18;;;;;;;;;;;;;;;4.54;100.00;100553.13;5134583;27;871;-59
2024/02/20 05:46:45;;;;;;;;;;;;;;;4.60;100.00;100557.25;5135076;27;1027;-59
2024/02/20 05:49:11;;;;;;;;;;;;;;;4.66;100.00;100560.56;5115764;27;2007;-59
2024/02/20 05:51:38;;;;;;;;;;;;;;;4.70;100.00;100562.25;5134511;27;843;-59
2024/02/20 05:54:05;;;;;;;;;;;;;;;4.76;100.00;100562.00;5134462;27;894;-59
2024/02/20 05:56:32;;;;;;;;;;;;;;;4.80;100.00;100560.19;5134299;27;930;-59
2024/02/20 05:58:59;;;;;;;;;;;;;;;4.83;100.00;100564.97;5134356;27;870;-59
2024/02/20 06:01:26;;;;;;;;;;;;;;;4.87;100.00;100574.13;5134279;27;891;-59
2024/02/20 06:03:52;;;;;;;;;;;;;;;4.94;100.00;100560.63;5134298;27;961;-59
2024/02/20 06:06:20;;;;;;;;;;;;;;;5.00;100.00;100567.47;5134331;27;902;-59
2024/02/20 06:08:46;;;;;;;;;;;;;;;5.05;100.00;100566.41;5134029;27;1951;-59
2024/02/20 06:11:13;;;;;;;;;;;;;;;5.04;100.00;100564.84;5115793;27;1673;-59
2024/02/20 06:13:41;;;;;;;;;;;;;;;4.97;100.00;100570.91;5134052;27;808;-59
2024/02/20 06:16:08;;;;;;;;;;;;;;;4.87;100.00;100577.63;5134070;27;823;-59
2024/02/20 06:18:35;;;;;;;;;;;;;;;4.83;100.00;100571.25;5134013;27;819;-59
2024/02/20 06:21:02;;;;;;;;;;;;;;;4.83;100.00;100562.25;5134322;27;807;-59
2024/02/20 06:23:28;;;;;;;;;;;;;;;4.89;100.00;100569.09;5133925;27;923;-59
2024/02/20 06:25:55;;;;;;;;;;;;;;;4.96;100.00;100563.81;5133750;27;919;-59
2024/02/20 06:28:22;;;;;;;;;;;;;;;4.99;100.00;100560.38;5133855;27;1882;-59
2024/02/20 06:30:50;;;;;;;;;;;;;;;4.97;100.00;100568.16;5133784;27;809;-59
2024/02/20 06:33:16;;;;;;;;;;;;;;;4.92;100.00;100568.38;5133704;27;882;-59
2024/02/20 06:35:42;;;;;;;;;;;;;;;4.87;100.00;100568.63;5133684;27;829;-59
2024/02/20 06:38:09;;;;;;;;;;;;;;;4.83;100.00;100573.19;5133805;27;858;-59
2024/02/20 06:40:35;;;;;;;;;;;;;;;4.77;100.00;100577.31;5133555;27;854;-59
2024/02/20 06:43:02;;;;;;;;;;;;;;;4.71;100.00;100582.22;5133832;27;882;-59
2024/02/20 06:45:29;;;;;;;;;;;;;;;4.69;100.00;100582.59;5133623;27;1072;-59
2024/02/20 06:47:57;;;;;;;;;;;;;;;4.82;100.00;100585.28;5133328;27;1289;-59
2024/02/20 06:50:23;;;;;;;;;;;;;;;5.12;100.00;100588.53;5133366;27;1918;-59
2024/02/20 06:52:52;;;;;;;;;;;;;;;5.40;100.00;100587.78;5133253;27;1082;-59
2024/02/20 06:55:18;;;;;;;;;;;;;;;5.72;100.00;100581.25;5132899;27;875;-59
2024/02/20 06:57:45;;;;;;;;;;;;;;;5.98;100.00;100580.00;5133594;27;827;-59
2024/02/20 07:00:14;;;;;;;;;;;;;;;6.24;100.00;100584.97;5133213;27;895;-59
2024/02/20 07:02:44;;;;;;;;;;;;;;;6.55;100.00;100588.88;5133160;27;847;-59
2024/02/20 07:05:11;;;;;;;;;;;;;;;6.61;100.00;100584.69;5133283;27;803;-59
2024/02/20 07:07:38;;;;;;;;;;;;;;;6.71;100.00;100586.88;5133216;27;819;-60
2024/02/20 07:10:08;;;;;;;;;;;;;;;6.77;100.00;100589.38;5133053;27;1914;-59
2024/02/20 07:12:35;;;;;;;;;;;;;;;6.83;100.00;100588.75;5133299;27;921;-59
2024/02/20 07:15:02;;;;;;;;;;;;;;;6.83;100.00;100591.50;5133032;27;863;-59
2024/02/20 07:17:29;;;;;;;;;;;;;;;6.92;100.00;100591.28;5132885;27;833;-59
2024/02/20 07:19:56;;;;;;;;;;;;;;;7.06;100.00;100596.28;5132990;27;819;-59
2024/02/20 07:22:23;;;;;;;;;;;;;;;7.22;100.00;100593.50;5132944;27;880;-59
2024/02/20 07:24:49;;;;;;;;;;;;;;;7.31;100.00;100596.84;5133147;27;880;-59
2024/02/20 07:27:16;;;;;;;;;;;;;;;7.31;100.00;100594.88;5132834;27;1205;-59
2024/02/20 07:29:43;;;;;;;;;;;;;;;7.22;100.00;100591.53;5114276;27;1889;-59
2024/02/20 07:32:10;;;;;;;;;;;;;;;7.28;100.00;100595.59;5132747;27;838;-59
2024/02/20 07:34:38;;;;;;;;;;;;;;;7.27;100.00;100598.72;5132762;27;835;-60
2024/02/20 07:37:04;;;;;;;;;;;;;;;7.41;100.00;100599.00;5114416;28;1383;-59
2024/02/20 07:39:31;;;;;;;;;;;;;;;7.56;100.00;100598.13;5132718;28;827;-58
2024/02/20 07:41:57;;;;;;;;;;;;;;;7.70;100.00;100594.06;5132742;28;863;-59
2024/02/20 07:44:25;;;;;;;;;;;;;;;7.91;100.00;100594.47;5132620;28;891;-60
2024/02/20 07:46:51;;;;;;;;;;;;;;;7.97;100.00;100590.25;5132712;28;827;-59
2024/02/20 07:49:17;;;;;;;;;;;;;;;8.08;100.00;100587.69;5132221;28;1901;-59
2024/02/20 07:51:44;;;;;;;;;;;;;;;8.32;100.00;100586.56;5132592;28;897;-59
2024/02/20 07:54:11;;;;;;;;;;;;;;;8.57;100.00;100584.22;5132549;28;964;-59
2024/02/20 07:56:36;;;;;;;;;;;;;;;8.66;100.00;100585.94;5114030;28;1186;-58
2024/02/20 07:59:03;;;;;;;;;;;;;;;8.85;100.00;100591.34;5132287;28;881;-59
2024/02/20 08:01:30;;;;;;;;;;;;;;;8.81;100.00;100593.25;5132474;28;840;-59
2024/02/20 08:03:55;;;;;;;;;;;;;;;8.76;100.00;100586.09;5132475;28;898;-59
2024/02/20 08:06:22;;;;;;;;;;;;;;;8.82;100.00;100588.53;5132573;27;816;-59
2024/02/20 08:08:49;;;;;;;;;;;;;;;8.95;100.00;100587.94;5118160;27;1978;-59
2024/02/20 08:11:15;;;;;;;;;;;;;;;9.12;100.00;100589.34;5136595;27;853;-59
2024/02/20 08:13:43;;;;;;;;;;;;;;;9.18;100.00;100593.38;5136286;27;843;-59
2024/02/20 08:16:13;;;;;;;;;;;;;;;9.12;100.00;100583.06;5136497;27;823;-59
2024/02/20 08:18:40;;;;;;;;;;;;;;;9.14;100.00;100595.28;5136045;27;878;-59
2024/02/20 08:21:07;;;;;;;;;;;;;;;9.17;100.00;100591.81;5117938;27;876;-59
2024/02/20 08:23:34;;;;;;;;;;;;;;;9.10;100.00;100588.94;5136234;27;929;-59
2024/02/20 08:26:02;;;;;;;;;;;;;;;8.77;100.00;100584.16;5136221;27;906;-59
2024/02/20 08:28:29;;;;;;;;;;;;;;;8.59;100.00;100594.88;5136302;27;1877;-60
2024/02/20 08:30:55;;;;;;;;;;;;;;;8.64;100.00;100585.50;5136240;27;882;-59
2024/02/20 08:33:22;;;;;;;;;;;;;;;8.59;100.00;100587.41;5135867;27;1152;-59
2024/02/20 08:35:48;;;;;;;;;;;;;;;8.56;100.00;100590.91;5135875;27;835;-59
2024/02/20 08:38:15;;;;;;;;;;;;;;;8.54;100.00;100592.44;5135775;27;878;-60
2024/02/20 08:40:42;;;;;;;;;;;;;;;8.68;100.00;100584.38;5135797;27;897;-59
2024/02/20 08:43:09;;;;;;;;;;;;;;;8.86;100.00;100587.41;5135952;27;842;-59
2024/02/20 08:45:35;;;;;;;;;;;;;;;9.00;100.00;100589.56;5135966;27;928;-60
2024/02/20 08:48:02;;;;;;;;;;;;;;;9.01;100.00;100591.19;5135441;27;1366;-59
2024/02/20 08:50:29;;;;;;;;;;;;;;;9.04;100.00;100595.16;5135429;27;1973;-59
2024/02/20 08:52:55;;;;;;;;;;;;;;;9.07;100.00;100586.94;5117201;27;1626;-59
2024/02/20 08:55:22;;;;;;;;;;;;;;;9.30;100.00;100586.03;5135646;27;864;-59
2024/02/20 08:57:48;;;;;;;;;;;;;;;9.41;100.00;100595.25;5135635;27;871;-59
2024/02/20 09:00:16;;;;;;;;;;;;;;;9.29;100.00;100592.72;5135565;27;804;-59
2024/02/20 09:02:42;;;;;;;;;;;;;;;9.18;100.00;100587.06;5135472;27;968;-59
2024/02/20 09:05:09;;;;;;;;;;;;;;;9.12;100.00;100583.84;5135056;27;800;-59
2024/02/20 09:07:36;;;;;;;;;;;;;;;9.11;100.00;100585.03;5135469;27;847;-59
2024/02/20 09:10:03;;;;;;;;;;;;;;;8.97;100.00;100582.84;5135253;27;1885;-59
2024/02/20 09:12:30;;;;;;;;;;;;;;;8.94;100.00;100586.38;5135344;27;953;-59
2024/02/20 09:46:00;;;;;;;;;;;;;;;9.95;100.00;100571.78;5738735;22;2090;-61
2024/02/20 09:48:30;;;;;;;;;;;;;;;10.08;97.68;100572.31;5071844;28;1886;-62
2024/02/20 09:51:00;;;;;;;;;;;;;;;9.98;97.63;100571.03;5073249;28;874;-61
2024/02/20 09:53:27;;;;;;;;;;;;;;;10.00;99.28;100573.41;5073271;28;851;-62
2024/02/20 09:55:54;;;;;;;;;;;;;;;10.18;98.64;100566.09;5073167;28;847;-61
2024/02/20 09:58:21;;;;;;;;;;;;;;;10.24;97.82;100561.00;5073060;28;826;-63
2024/02/20 10:00:47;;;;;;;;;;;;;;;10.13;96.20;100555.38;5071993;28;1191;-63
2024/02/20 10:03:14;;;;;;;;;;;;;;;9.95;96.54;100559.97;5073055;28;875;-61
2024/02/20 10:05:47;;;;;;;;;;;;;;;9.89;97.74;100558.72;5073244;28;844;-62
2024/02/20 10:08:13;;;;;;;;;;;;;;;9.97;99.30;100555.63;5072769;28;1890;-62
2024/02/20 10:10:42;;;;;;;;;;;;;;;10.05;97.17;100551.00;5072856;28;819;-62
2024/02/20 10:13:09;;;;;;;;;;;;;;;9.83;97.17;100549.97;5073003;28;859;-62
2024/02/20 10:15:35;;;;;;;;;;;;;;;9.97;97.01;100550.13;5073020;28;855;-62
2024/02/20 10:18:03;;;;;;;;;;;;;;;9.88;96.29;100552.41;5073282;28;827;-62
2024/02/20 10:20:30;;;;;;;;;;;;;;;9.96;95.92;100544.97;5072839;28;936;-62
2024/02/20 10:23:07;;;;;;;;;;;;;;;10.23;94.96;100540.88;5072740;28;847;-62
2024/02/20 10:25:33;;;;;;;;;;;;;;;10.44;93.39;100535.94;5072860;28;871;-63
2024/02/20 10:27:59;;;;;;;;;;;;;;;10.71;92.13;100544.78;5072583;28;851;-63
2024/02/20 10:30:26;;;;;;;;;;;;;;;11.19;88.97;100539.13;5071713;28;1957;-63
2024/02/20 10:32:52;;;;;;;;;;;;;;;11.10;88.04;100530.41;5072414;28;820;-63
2024/02/20 10:35:19;;;;;;;;;;;;;;;11.16;88.48;100526.88;5072454;28;946;-63
2024/02/20 10:37:46;;;;;;;;;;;;;;;11.44;86.69;100514.31;5072242;28;915;-63
2024/02/20 10:40:13;;;;;;;;;;;;;;;11.78;85.39;100503.72;5072291;28;828;-62
2024/02/20 10:42:40;;;;;;;;;;;;;;;11.81;82.17;100496.59;5070880;28;1343;-62
2024/02/20 10:45:10;;;;;;;;;;;;;;;12.24;80.50;100500.19;5072384;28;994;-62
2024/02/20 10:47:39;;;;;;;;;;;;;;;12.55;74.96;100494.22;5072107;28;1450;-61
2024/02/20 10:50:07;;;;;;;;;;;;;;;12.45;74.62;100491.06;5072275;28;2361;-62
2024/02/20 10:52:34;;;;;;;;;;;;;;;12.55;71.37;100485.91;5072150;28;879;-61
2024/02/20 10:55:03;;;;;;;;;;;;;;;12.98;70.15;100485.78;5072448;28;816;-61
2024/02/20 10:57:30;;;;;;;;;;;;;;;13.62;66.56;100481.91;5072108;28;910;-61
2024/02/20 10:59:57;;;;;;;;;;;;;;;13.57;65.42;100474.81;5072069;28;874;-61
2024/02/20 11:02:23;;;;;;;;;;;;;;;12.97;64.81;100465.56;5072044;28;812;-61
2024/02/20 11:04:50;;;;;;;;;;;;;;;12.62;64.90;100460.94;5071977;28;875;-60
2024/02/20 11:07:18;;;;;;;;;;;;;;;12.79;65.25;100457.28;5070691;28;1194;-62
2024/02/20 11:10:06;;;;;;;;;;;;;;;13.37;61.96;100448.72;5071892;28;1890;-61
